createdAt,value
2023-03-23T15:58:35.846Z,19.40
2023-03-23T16:01:08.675Z,13.63
2023-03-23T16:03:40.615Z,16.43
2023-03-23T16:06:09.485Z,15.50
2023-03-23T16:08:40.834Z,12.80
2023-03-23T16:11:11.221Z,16.30
2023-03-23T16:13:37.839Z,17.00
2023-03-23T16:16:05.363Z,15.50
2023-03-23T16:18:31.879Z,14.07
2023-03-23T16:20:58.391Z,13.87
2023-03-23T16:23:24.833Z,14.20
2023-03-23T16:25:51.499Z,16.03
2023-03-23T16:28:17.961Z,14.23
2023-03-23T16:30:44.961Z,13.23
2023-03-23T16:33:11.595Z,17.23
2023-03-23T16:35:38.189Z,17.63
2023-03-23T16:38:07.072Z,16.67
2023-03-23T16:40:36.528Z,16.67
2023-03-23T16:43:08.635Z,16.00
2023-03-23T16:45:37.145Z,17.37
2023-03-23T16:48:05.203Z,14.37
2023-03-23T16:50:32.008Z,14.13
2023-03-23T16:52:59.072Z,17.10
2023-03-23T16:55:27.220Z,15.33
2023-03-23T16:58:05.191Z,17.00
2023-03-23T17:00:36.187Z,16.90
2023-03-23T17:03:02.891Z,13.53
2023-03-23T17:05:29.882Z,12.33
2023-03-23T17:07:56.737Z,15.17
2023-03-23T17:10:27.187Z,15.87
2023-03-23T17:12:55.036Z,13.00
2023-03-23T17:15:21.992Z,12.17
2023-03-23T17:17:48.533Z,17.50
2023-03-23T17:20:15.090Z,16.93
2023-03-23T17:22:41.739Z,14.37
2023-03-23T17:25:09.310Z,18.67
2023-03-23T17:27:36.840Z,17.13
2023-03-23T17:30:05.370Z,15.40
2023-03-23T17:32:31.870Z,15.37
2023-03-23T17:34:58.869Z,14.57
2023-03-23T17:37:25.786Z,13.30
2023-03-23T17:39:53.230Z,14.77
2023-03-23T17:42:19.808Z,11.90
2023-03-23T17:44:46.324Z,15.00
2023-03-23T17:47:12.877Z,13.73
2023-03-23T17:49:39.442Z,17.80
2023-03-23T17:52:05.923Z,15.00
2023-03-23T17:54:32.462Z,13.03
2023-03-23T17:57:00.996Z,14.47
2023-03-23T17:59:29.154Z,11.17
2023-03-23T18:01:55.751Z,13.23
2023-03-23T18:04:22.587Z,10.97
2023-03-23T18:06:49.390Z,11.40
2023-03-23T18:09:15.908Z,10.00
2023-03-23T18:11:42.389Z,12.20
2023-03-23T18:14:08.881Z,13.93
2023-03-23T18:16:35.438Z,9.30
2023-03-23T18:19:02.038Z,14.27
2023-03-23T18:21:28.641Z,10.90
2023-03-23T18:23:59.799Z,9.10
2023-03-23T18:26:27.651Z,12.93
2023-03-23T18:28:54.191Z,10.27
2023-03-23T18:31:21.060Z,10.43
2023-03-23T18:33:49.931Z,9.67
2023-03-23T18:36:18.946Z,11.10
2023-03-23T18:38:46.396Z,11.40
2023-03-23T18:41:13.690Z,11.30
2023-03-23T18:43:40.458Z,9.47
2023-03-23T18:46:07.943Z,11.00
2023-03-23T18:48:35.741Z,7.50
2023-03-23T18:51:02.614Z,9.27
2023-03-23T18:53:29.460Z,10.67
2023-03-23T18:56:05.749Z,9.83
2023-03-23T18:58:32.768Z,7.33
2023-03-23T19:01:03.232Z,6.97
2023-03-23T19:03:31.006Z,6.87
2023-03-23T19:05:59.443Z,8.30
2023-03-23T19:08:27.489Z,9.03
2023-03-23T19:11:02.344Z,9.83
2023-03-23T19:13:30.789Z,9.17
2023-03-23T19:15:57.399Z,9.13
2023-03-23T19:18:24.113Z,9.00
2023-03-23T19:23:23.570Z,7.30
2023-03-23T19:25:53.516Z,7.20
2023-03-23T19:29:08.419Z,8.40
2023-03-23T19:31:08.832Z,6.67
2023-03-23T19:33:38.002Z,7.33
2023-03-23T19:36:10.212Z,5.47
2023-03-23T19:38:39.414Z,7.57
2023-03-23T19:41:06.689Z,6.87
2023-03-23T19:43:34.494Z,6.07
2023-03-23T19:46:02.096Z,9.40
2023-03-23T19:48:32.288Z,7.57
2023-03-23T19:50:59.457Z,8.03
2023-03-23T19:53:27.156Z,5.83
2023-03-23T19:55:57.500Z,8.27
2023-03-23T19:58:27.557Z,8.93
2023-03-23T20:00:55.140Z,8.50
2023-03-23T20:03:21.982Z,6.33
2023-03-23T20:08:31.390Z,7.50
2023-03-23T20:11:08.164Z,9.03
2023-03-23T20:13:35.123Z,7.33
2023-03-23T20:16:02.090Z,8.83
2023-03-23T20:18:32.295Z,6.40
2023-03-23T20:21:08.770Z,7.33
2023-03-23T20:23:40.248Z,5.60
2023-03-23T20:26:12.328Z,5.23
2023-03-23T20:28:40.722Z,7.03
2023-03-23T20:31:23.356Z,8.00
2023-03-23T20:34:00.857Z,7.67
2023-03-23T20:36:45.095Z,6.70
2023-03-23T20:39:14.752Z,5.10
2023-03-23T20:41:43.236Z,7.10
2023-03-23T20:44:14.367Z,7.23
2023-03-23T20:46:48.046Z,6.27
2023-03-23T20:49:15.880Z,7.23
2023-03-23T20:51:43.698Z,5.53
2023-03-23T20:54:11.371Z,8.77
2023-03-23T20:56:40.531Z,7.57
2023-03-23T20:59:07.504Z,6.50
2023-03-23T21:01:34.394Z,6.70
2023-03-23T21:04:03.106Z,5.90
2023-03-23T21:06:31.202Z,7.23
2023-03-23T21:08:58.130Z,7.33
2023-03-23T21:11:26.718Z,8.63
2023-03-23T21:13:53.773Z,8.17
2023-03-23T21:16:21.001Z,7.93
2023-03-23T21:18:47.891Z,7.60
2023-03-23T21:21:15.213Z,9.23
2023-03-23T21:23:48.718Z,5.50
2023-03-23T21:26:17.000Z,5.50
2023-03-23T21:28:44.724Z,9.33
2023-03-23T21:31:11.392Z,5.93
2023-03-23T21:33:37.938Z,6.37
2023-03-23T21:36:05.112Z,7.23
2023-03-23T21:38:32.340Z,8.13
2023-03-23T21:40:59.977Z,7.33
2023-03-23T21:43:27.484Z,7.90
2023-03-23T21:45:57.258Z,10.50
2023-03-23T21:48:25.305Z,5.77
2023-03-23T21:50:52.446Z,7.70
2023-03-23T21:53:19.578Z,7.50
2023-03-23T21:55:51.245Z,6.70
2023-03-23T21:58:23.277Z,6.53
2023-03-23T22:00:54.143Z,8.67
2023-03-23T22:03:25.039Z,6.63
2023-03-23T22:06:04.286Z,6.30
2023-03-23T22:08:31.205Z,5.43
2023-03-23T22:11:02.388Z,8.13
2023-03-23T22:13:30.917Z,8.87
2023-03-23T22:15:58.999Z,5.73
2023-03-23T22:18:26.505Z,11.37
2023-03-23T22:20:54.036Z,10.13
2023-03-23T22:23:21.310Z,10.43
2023-03-23T22:25:53.561Z,10.07
2023-03-23T22:28:31.886Z,13.17
2023-03-23T22:31:26.571Z,10.40
2023-03-23T22:34:49.411Z,9.00
2023-03-23T22:36:48.873Z,9.20
2023-03-23T22:39:15.560Z,8.40
2023-03-23T22:41:42.559Z,8.20
2023-03-23T22:44:14.784Z,8.37
2023-03-23T22:46:41.687Z,7.00
2023-03-23T22:49:08.309Z,7.10
2023-03-23T22:51:36.855Z,6.87
2023-03-23T22:54:04.989Z,7.37
2023-03-23T22:56:31.985Z,7.70
2023-03-23T22:59:00.124Z,7.33
2023-03-23T23:01:27.367Z,7.83
2023-03-23T23:03:54.194Z,7.50
2023-03-23T23:06:20.726Z,9.93
2023-03-23T23:08:48.147Z,9.73
2023-03-23T23:11:16.654Z,9.03
2023-03-23T23:13:43.213Z,9.73
2023-03-23T23:16:10.799Z,11.63
2023-03-23T23:18:37.909Z,9.40
2023-03-23T23:21:11.101Z,9.90
2023-03-23T23:23:38.008Z,10.37
2023-03-23T23:26:04.936Z,10.13
2023-03-23T23:28:31.418Z,11.57
2023-03-23T23:30:58.251Z,10.50
2023-03-23T23:33:24.712Z,11.07
2023-03-23T23:35:51.960Z,10.47
2023-03-23T23:38:18.651Z,12.60
2023-03-23T23:40:46.268Z,10.83
2023-03-23T23:43:16.590Z,11.20
2023-03-23T23:45:43.529Z,11.20
2023-03-23T23:48:10.207Z,13.60
2023-03-23T23:50:36.763Z,12.27
2023-03-23T23:53:04.844Z,11.73
2023-03-23T23:55:31.422Z,11.93
2023-03-23T23:57:57.911Z,11.63
